createdAt,value
2023-10-20T00:01:36.363Z,97109.00
2023-10-20T00:04:03.366Z,97110.60
2023-10-20T00:06:30.162Z,97111.20
2023-10-20T00:08:57.370Z,97111.00
2023-10-20T00:11:26.043Z,97106.00
2023-10-20T00:13:53.182Z,97094.80
2023-10-20T00:16:29.226Z,97083.20
2023-10-20T00:18:56.988Z,97084.00
2023-10-20T00:21:26.664Z,97075.40
2023-10-20T00:23:52.598Z,97060.00
2023-10-20T00:26:19.334Z,97051.80
2023-10-20T00:28:45.574Z,97052.20
2023-10-20T00:31:17.517Z,97050.60
2023-10-20T00:33:43.774Z,97044.00
2023-10-20T00:36:10.127Z,97036.40
2023-10-20T00:38:36.308Z,97032.40
2023-10-20T00:41:02.370Z,97024.00
2023-10-20T00:43:41.069Z,97033.40
2023-10-20T00:46:09.365Z,97036.80
2023-10-20T00:48:36.525Z,97027.00
2023-10-20T00:53:30.156Z,97010.60
2023-10-20T00:55:57.710Z,97001.40
2023-10-20T00:58:26.199Z,97002.60
2023-10-20T01:00:52.707Z,97009.40
2023-10-20T01:03:19.854Z,97011.00
2023-10-20T01:05:46.363Z,97011.00
2023-10-20T01:08:12.327Z,97014.20
2023-10-20T01:10:38.320Z,97023.00
2023-10-20T01:13:05.217Z,97020.80
2023-10-20T01:15:32.015Z,97022.80
2023-10-20T01:17:58.737Z,97022.00
2023-10-20T01:20:24.862Z,97018.40
2023-10-20T01:22:50.896Z,97007.40
2023-10-20T01:25:17.029Z,96997.40
2023-10-20T01:27:42.980Z,96987.80
2023-10-20T01:30:11.214Z,97003.40
2023-10-20T01:32:39.364Z,96998.80
2023-10-20T01:35:06.007Z,96984.20
2023-10-20T01:37:31.963Z,96978.00
2023-10-20T01:39:57.708Z,96978.40
2023-10-20T01:42:23.444Z,96984.60
2023-10-20T01:44:49.278Z,96987.60
2023-10-20T01:47:15.243Z,96986.60
2023-10-20T01:49:41.132Z,96990.00
2023-10-20T01:52:06.913Z,96985.60
2023-10-20T01:54:33.544Z,96980.20
2023-10-20T01:56:59.445Z,96978.00
2023-10-20T01:59:25.329Z,96976.80
2023-10-20T02:01:51.469Z,96973.40
2023-10-20T02:04:18.104Z,96974.60
2023-10-20T02:06:44.238Z,96974.00
2023-10-20T02:09:10.758Z,96974.00
2023-10-20T02:11:36.961Z,96968.80
2023-10-20T02:14:03.715Z,96970.20
2023-10-20T02:16:31.611Z,96972.40
2023-10-20T02:18:57.456Z,96967.20
2023-10-20T02:21:23.173Z,96959.80
2023-10-20T02:23:48.942Z,96950.40
2023-10-20T02:26:17.105Z,96950.60
2023-10-20T02:28:42.885Z,96950.80
2023-10-20T02:31:20.649Z,96955.40
2023-10-20T02:33:47.868Z,96948.00
2023-10-20T02:36:22.460Z,96943.60
2023-10-20T02:38:52.720Z,96939.80
2023-10-20T02:41:19.774Z,96942.40
2023-10-20T02:43:46.216Z,96943.20
2023-10-20T02:46:16.360Z,96951.00
2023-10-20T02:48:42.497Z,96942.40
2023-10-20T02:51:13.264Z,96938.80
2023-10-20T02:53:41.943Z,96937.60
2023-10-20T02:56:19.497Z,96937.20
2023-10-20T02:58:46.408Z,96931.60
2023-10-20T03:01:14.240Z,96926.80
2023-10-20T03:03:41.090Z,96925.40
2023-10-20T03:06:10.146Z,96917.00
2023-10-20T03:08:38.517Z,96908.40
2023-10-20T03:11:06.625Z,96916.80
2023-10-20T03:13:32.748Z,96919.80
2023-10-20T03:15:58.754Z,96929.40
2023-10-20T03:18:24.522Z,96928.80
2023-10-20T03:20:53.978Z,96931.00
2023-10-20T03:23:22.475Z,96937.40
2023-10-20T03:25:48.327Z,96942.80
2023-10-20T03:28:14.323Z,96953.20
2023-10-20T03:30:45.930Z,96954.00
2023-10-20T03:33:16.092Z,96967.20
2023-10-20T03:35:41.978Z,96969.40
2023-10-20T03:38:09.519Z,96957.80
2023-10-20T03:40:42.650Z,96953.20
2023-10-20T03:43:10.290Z,96953.80
2023-10-20T03:45:52.372Z,96948.80
2023-10-20T03:48:24.005Z,96950.40
2023-10-20T03:50:52.384Z,96951.40
2023-10-20T03:53:27.409Z,96951.20
2023-10-20T03:56:01.962Z,96947.60
2023-10-20T03:58:31.163Z,96937.20
2023-10-20T04:01:01.983Z,96937.20
2023-10-20T04:03:28.948Z,96936.00
2023-10-20T04:05:54.730Z,96927.60
2023-10-20T04:08:20.957Z,96932.40
2023-10-20T04:10:46.948Z,96942.80
2023-10-20T04:13:13.239Z,96950.00
2023-10-20T04:15:40.725Z,96948.60
2023-10-20T04:18:06.822Z,96938.00
2023-10-20T04:20:40.477Z,96925.40
2023-10-20T04:23:10.584Z,96912.60
2023-10-20T04:25:49.557Z,96911.20
2023-10-20T04:28:16.572Z,96917.60
2023-10-20T04:31:01.026Z,96912.60
2023-10-20T04:33:45.441Z,96910.20
2023-10-20T04:36:29.897Z,96921.20
2023-10-20T04:39:03.790Z,96922.60
2023-10-20T04:41:47.939Z,96916.40
2023-10-20T04:44:16.672Z,96911.60
2023-10-20T04:49:48.179Z,96906.80
2023-10-20T04:52:32.266Z,96906.80
2023-10-20T04:55:01.140Z,96896.80
2023-10-20T04:57:45.219Z,96901.00
2023-10-20T05:00:12.714Z,96913.60
2023-10-20T05:03:03.911Z,96921.20
2023-10-20T05:05:43.190Z,96924.60
2023-10-20T05:08:12.100Z,96920.60
2023-10-20T05:10:40.960Z,96918.80
2023-10-20T05:13:08.323Z,96934.80
2023-10-20T05:15:39.064Z,96944.20
2023-10-20T05:18:15.602Z,96938.80
2023-10-20T05:20:42.874Z,96941.20
2023-10-20T05:23:11.206Z,96948.40
2023-10-20T05:25:38.569Z,96950.40
2023-10-20T05:28:07.536Z,96947.20
2023-10-20T05:30:33.537Z,96950.80
2023-10-20T05:32:59.427Z,96961.00
2023-10-20T05:35:25.519Z,96966.60
2023-10-20T05:37:51.679Z,96962.20
2023-10-20T05:40:17.492Z,96957.20
2023-10-20T05:42:43.287Z,96950.60
2023-10-20T05:45:17.848Z,96947.60
2023-10-20T05:47:44.625Z,96945.20
2023-10-20T05:50:10.881Z,96943.00
2023-10-20T05:52:37.166Z,96949.00
2023-10-20T05:55:03.758Z,96949.20
2023-10-20T05:57:30.157Z,96952.60
2023-10-20T05:59:55.944Z,96954.40
2023-10-20T06:02:23.245Z,96958.80
2023-10-20T06:04:48.997Z,96956.00
2023-10-20T06:07:14.697Z,96958.80
2023-10-20T06:09:40.759Z,96962.80
2023-10-20T06:12:07.647Z,96959.20
2023-10-20T06:14:36.593Z,96958.80
2023-10-20T06:19:37.702Z,96959.00
2023-10-20T06:22:04.083Z,96959.20
2023-10-20T06:24:29.819Z,96949.60
2023-10-20T06:27:02.629Z,96948.00
2023-10-20T06:29:41.916Z,96946.00
2023-10-20T06:32:23.661Z,96946.40
2023-10-20T06:34:51.496Z,96947.60
2023-10-20T06:37:31.652Z,96938.40
2023-10-20T06:39:57.468Z,96937.60
2023-10-20T06:42:24.865Z,96939.60
2023-10-20T06:44:51.317Z,96938.20
2023-10-20T06:47:17.375Z,96948.20
2023-10-20T06:49:44.596Z,96954.60
2023-10-20T06:52:11.499Z,96951.60
2023-10-20T06:54:37.274Z,96953.00
2023-10-20T06:57:03.434Z,96945.40
2023-10-20T06:59:29.450Z,96942.20
2023-10-20T07:02:00.511Z,96935.00
2023-10-20T07:04:30.732Z,96933.60
2023-10-20T07:06:58.321Z,96941.20
2023-10-20T07:09:24.394Z,96936.00
2023-10-20T07:11:50.327Z,96923.60
2023-10-20T07:14:16.520Z,96916.20
2023-10-20T07:16:42.674Z,96918.00
2023-10-20T07:19:08.991Z,96921.40
2023-10-20T07:21:35.693Z,96917.80
2023-10-20T07:26:30.225Z,96905.40
2023-10-20T07:28:56.059Z,96909.80
2023-10-20T07:31:22.024Z,96900.20
2023-10-20T07:33:49.702Z,96891.40
2023-10-20T07:36:16.872Z,96888.20
2023-10-20T07:38:46.264Z,96894.20
2023-10-20T07:41:13.478Z,96898.60
2023-10-20T07:43:40.320Z,96901.40
2023-10-20T07:46:06.439Z,96899.20
2023-10-20T07:48:33.726Z,96898.40
2023-10-20T07:51:00.973Z,96896.00
2023-10-20T07:53:27.210Z,96902.40
2023-10-20T07:55:53.241Z,96908.20
2023-10-20T07:58:20.940Z,96909.40
2023-10-20T08:00:46.719Z,96904.00
2023-10-20T08:03:12.839Z,96902.00
2023-10-20T08:05:40.583Z,96906.00
2023-10-20T08:08:07.062Z,96894.00
2023-10-20T08:10:33.450Z,96881.40
2023-10-20T08:13:00.001Z,96875.40
2023-10-20T08:15:29.470Z,96870.20
2023-10-20T08:17:56.243Z,96861.20
2023-10-20T08:20:22.970Z,96864.60
2023-10-20T08:22:49.050Z,96860.00
2023-10-20T08:25:15.653Z,96865.60
2023-10-20T08:27:41.600Z,96860.60
2023-10-20T08:30:08.208Z,96872.00
2023-10-20T08:32:34.378Z,96872.60
2023-10-20T08:35:00.273Z,96865.80
2023-10-20T08:37:26.122Z,96857.20
2023-10-20T08:39:54.665Z,96853.40
2023-10-20T08:42:22.151Z,96855.00
2023-10-20T08:44:50.153Z,96861.80
2023-10-20T08:47:17.745Z,96860.20
2023-10-20T08:49:44.370Z,96869.20
2023-10-20T08:52:14.270Z,96873.80
2023-10-20T08:54:41.634Z,96871.80
2023-10-20T08:57:08.564Z,96859.80
2023-10-20T08:59:36.555Z,96860.60
2023-10-20T09:02:03.600Z,96865.20
2023-10-20T09:04:29.507Z,96866.20
2023-10-20T09:06:56.284Z,96870.00
2023-10-20T09:09:22.564Z,96877.40
2023-10-20T09:11:49.097Z,96878.20
2023-10-20T09:14:15.649Z,96871.40
2023-10-20T09:16:42.728Z,96868.20
2023-10-20T09:19:12.710Z,96863.00
2023-10-20T09:21:40.127Z,96860.80
2023-10-20T09:24:08.744Z,96859.00
2023-10-20T09:26:36.666Z,96854.20
2023-10-20T09:29:04.889Z,96839.40
2023-10-20T09:31:30.720Z,96846.80
2023-10-20T09:33:56.580Z,96857.20
2023-10-20T09:36:25.783Z,96867.00
2023-10-20T09:38:54.890Z,96868.20
2023-10-20T09:41:26.172Z,96870.40
2023-10-20T09:44:03.368Z,96857.60
2023-10-20T09:46:49.020Z,96846.80
2023-10-20T09:49:21.187Z,96841.80
2023-10-20T09:51:49.835Z,96839.80
2023-10-20T09:54:26.713Z,96829.00
2023-10-20T09:56:54.443Z,96823.60
2023-10-20T09:59:31.020Z,96813.40
2023-10-20T10:02:02.091Z,96804.20
2023-10-20T10:04:33.868Z,96789.60
2023-10-20T10:07:05.277Z,96782.40
2023-10-20T10:09:40.880Z,96788.20
2023-10-20T10:12:09.771Z,96786.00
2023-10-20T10:14:35.807Z,96783.40
2023-10-20T10:17:04.827Z,96782.40
2023-10-20T10:19:30.591Z,96778.40
2023-10-20T10:22:01.018Z,96764.80
2023-10-20T10:24:27.267Z,96764.80
2023-10-20T10:27:00.452Z,96764.00
2023-10-20T10:29:56.814Z,96760.60
2023-10-20T10:32:27.233Z,96754.80
2023-10-20T10:34:56.655Z,96748.20
2023-10-20T10:37:36.423Z,96749.40
2023-10-20T10:40:04.796Z,96745.20
2023-10-20T10:42:30.526Z,96747.20
2023-10-20T10:44:56.306Z,96748.00
2023-10-20T10:47:23.386Z,96753.40
2023-10-20T10:49:50.113Z,96759.60
2023-10-20T10:52:16.721Z,96762.00
2023-10-20T10:54:42.736Z,96769.40
2023-10-20T10:57:10.201Z,96770.20
2023-10-20T10:59:36.541Z,96778.40
2023-10-20T11:02:05.020Z,96774.40
2023-10-20T11:04:31.068Z,96772.60
2023-10-20T11:06:56.917Z,96772.00
2023-10-20T11:09:27.904Z,96771.80
2023-10-20T11:11:53.831Z,96766.60
2023-10-20T11:14:23.748Z,96755.80
2023-10-20T11:16:49.792Z,96746.60
2023-10-20T11:19:16.039Z,96742.20
2023-10-20T11:21:50.720Z,96742.40
2023-10-20T11:24:37.478Z,96739.80
2023-10-20T11:29:39.797Z,96738.00
2023-10-20T11:32:20.227Z,96744.80
2023-10-20T11:34:46.292Z,96750.00
2023-10-20T11:37:13.115Z,96753.20
2023-10-20T11:39:39.234Z,96750.80
2023-10-20T11:42:05.163Z,96758.00
2023-10-20T11:44:31.062Z,96760.60
2023-10-20T11:47:03.201Z,96758.60
2023-10-20T11:49:28.913Z,96766.20
2023-10-20T11:51:55.697Z,96766.60
2023-10-20T11:54:22.109Z,96773.20
2023-10-20T11:56:48.342Z,96775.20
2023-10-20T11:59:15.309Z,96775.80
2023-10-20T12:01:41.588Z,96780.80
2023-10-20T12:04:09.265Z,96789.20
2023-10-20T12:06:38.720Z,96791.40
2023-10-20T12:09:04.783Z,96798.40
2023-10-20T12:11:30.708Z,96805.80
2023-10-20T12:14:01.780Z,96806.20
2023-10-20T12:16:28.029Z,96809.00
2023-10-20T12:18:53.845Z,96799.20
2023-10-20T12:21:19.569Z,96795.40
2023-10-20T12:23:46.086Z,96798.00
2023-10-20T12:26:12.110Z,96797.00
2023-10-20T12:28:37.979Z,96800.60
2023-10-20T12:31:03.939Z,96800.80
2023-10-20T12:33:29.944Z,96792.20
2023-10-20T12:35:56.519Z,96795.60
2023-10-20T12:38:22.627Z,96783.60
2023-10-20T12:40:51.975Z,96781.20
2023-10-20T12:43:18.039Z,96774.80
2023-10-20T12:45:44.667Z,96762.80
2023-10-20T12:48:10.667Z,96761.00
2023-10-20T12:50:36.784Z,96759.40
2023-10-20T12:53:03.533Z,96759.20
2023-10-20T12:55:30.953Z,96755.20
2023-10-20T12:57:57.647Z,96751.40
2023-10-20T13:00:25.743Z,96750.60
2023-10-20T13:02:53.310Z,96751.80
2023-10-20T13:05:23.011Z,96738.40
2023-10-20T13:07:50.810Z,96736.60
2023-10-20T13:10:18.865Z,96737.60
2023-10-20T13:12:45.164Z,96732.60
2023-10-20T13:15:11.296Z,96724.40
2023-10-20T13:17:38.098Z,96718.00
2023-10-20T13:22:30.848Z,96716.20
2023-10-20T13:24:56.962Z,96718.60
2023-10-20T13:27:22.747Z,96712.00
2023-10-20T13:29:48.504Z,96708.20
2023-10-20T13:32:14.367Z,96698.40
2023-10-20T13:34:40.544Z,96695.60
2023-10-20T13:37:06.274Z,96694.20
2023-10-20T13:39:50.648Z,96692.80
2023-10-20T13:42:16.776Z,96706.40
2023-10-20T13:44:43.267Z,96708.20
2023-10-20T13:47:08.994Z,96719.00
2023-10-20T13:49:35.211Z,96719.00
2023-10-20T13:54:30.478Z,96716.00
2023-10-20T13:56:56.256Z,96712.80
2023-10-20T13:59:22.111Z,96708.60
2023-10-20T14:01:47.901Z,96711.40
2023-10-20T14:04:13.889Z,96718.00
2023-10-20T14:06:49.241Z,96722.20
2023-10-20T14:09:14.996Z,96728.40
2023-10-20T14:11:41.100Z,96737.20
2023-10-20T14:14:06.857Z,96734.60
2023-10-20T14:16:35.709Z,96740.60
2023-10-20T14:19:01.809Z,96747.40
2023-10-20T14:21:27.913Z,96745.60
2023-10-20T14:23:53.707Z,96748.20
2023-10-20T14:26:19.459Z,96745.80
2023-10-20T14:28:45.204Z,96741.20
2023-10-20T14:31:12.229Z,96745.40
2023-10-20T14:33:40.970Z,96741.40
2023-10-20T14:36:14.346Z,96744.20
2023-10-20T14:38:40.243Z,96743.40
2023-10-20T14:41:07.828Z,96735.20
2023-10-20T14:43:39.875Z,96727.20
2023-10-20T14:46:08.471Z,96735.00
2023-10-20T14:48:36.458Z,96736.00
2023-10-20T14:51:05.781Z,96724.80
2023-10-20T14:53:31.538Z,96728.40
2023-10-20T14:55:57.338Z,96724.60
2023-10-20T14:58:23.165Z,96728.20
2023-10-20T15:00:50.622Z,96727.80
2023-10-20T15:03:21.263Z,96729.40
2023-10-20T15:05:48.118Z,96733.00
2023-10-20T15:08:14.120Z,96733.80
2023-10-20T15:10:40.173Z,96735.00
2023-10-20T15:13:06.305Z,96737.80
2023-10-20T15:15:38.722Z,96732.40
2023-10-20T15:18:05.700Z,96737.40
2023-10-20T15:20:31.994Z,96738.40
2023-10-20T15:23:10.464Z,96744.40
2023-10-20T15:25:39.038Z,96740.60
2023-10-20T15:30:30.626Z,96740.60
2023-10-20T15:32:56.568Z,96745.40
2023-10-20T15:35:22.569Z,96742.00
2023-10-20T15:37:48.455Z,96740.20
2023-10-20T15:40:18.620Z,96744.60
2023-10-20T15:42:45.283Z,96740.00
2023-10-20T15:45:11.573Z,96743.20
2023-10-20T15:47:38.280Z,96743.20
2023-10-20T15:52:31.436Z,96741.20
2023-10-20T15:54:57.240Z,96738.00
2023-10-20T15:57:23.948Z,96739.00
2023-10-20T15:59:56.688Z,96738.80
2023-10-20T16:02:24.127Z,96741.80
2023-10-20T16:04:53.607Z,96745.40
2023-10-20T16:07:22.808Z,96747.20
2023-10-20T16:09:48.998Z,96748.60
2023-10-20T16:12:16.302Z,96750.20
2023-10-20T16:14:44.004Z,96748.40
2023-10-20T16:17:10.755Z,96751.80
2023-10-20T16:19:37.939Z,96753.80
2023-10-20T16:22:05.934Z,96753.20
2023-10-20T16:24:32.416Z,96752.00
2023-10-20T16:27:01.167Z,96756.00
2023-10-20T16:29:27.063Z,96758.20
2023-10-20T16:31:52.896Z,96756.00
2023-10-20T16:34:20.848Z,96759.80
2023-10-20T16:36:46.670Z,96758.20
2023-10-20T16:39:12.903Z,96761.40
2023-10-20T16:41:39.065Z,96756.80
2023-10-20T16:44:05.792Z,96762.00
2023-10-20T16:46:31.598Z,96762.40
2023-10-20T16:48:57.360Z,96757.00
2023-10-20T16:51:23.758Z,96760.60
2023-10-20T16:53:49.548Z,96757.40
2023-10-20T16:56:15.422Z,96763.20
2023-10-20T16:58:41.243Z,96764.80
2023-10-20T17:01:07.341Z,96759.80
2023-10-20T17:03:34.676Z,96758.80
2023-10-20T17:08:32.153Z,96761.80
2023-10-20T17:11:03.760Z,96759.40
2023-10-20T17:13:30.259Z,96750.80
2023-10-20T17:15:56.116Z,96749.60
2023-10-20T17:18:22.178Z,96745.20
2023-10-20T17:20:48.662Z,96738.60
2023-10-20T17:23:15.060Z,96734.80
2023-10-20T17:25:47.911Z,96731.80
2023-10-20T17:28:13.907Z,96726.60
2023-10-20T17:30:39.692Z,96724.00
2023-10-20T17:35:35.136Z,96715.80
2023-10-20T17:38:04.651Z,96720.60
2023-10-20T17:40:35.073Z,96717.60
2023-10-20T17:43:01.312Z,96707.00
2023-10-20T17:45:27.344Z,96708.40
2023-10-20T17:47:53.466Z,96716.20
2023-10-20T17:50:19.364Z,96706.60
2023-10-20T17:52:45.560Z,96711.40
2023-10-20T17:55:11.596Z,96715.00
2023-10-20T17:57:37.430Z,96709.80
2023-10-20T18:02:31.019Z,96700.00
2023-10-20T18:04:56.832Z,96695.20
2023-10-20T18:07:22.630Z,96691.80
2023-10-20T18:09:48.720Z,96698.60
2023-10-20T18:12:14.512Z,96709.20
2023-10-20T18:14:40.263Z,96700.80
2023-10-20T18:17:05.970Z,96710.20
2023-10-20T18:19:31.689Z,96719.40
2023-10-20T18:21:57.396Z,96727.40
2023-10-20T18:24:23.247Z,96735.20
2023-10-20T18:26:49.166Z,96728.40
2023-10-20T18:29:15.174Z,96734.80
2023-10-20T18:31:41.396Z,96738.20
2023-10-20T18:34:08.628Z,96726.20
2023-10-20T18:36:34.420Z,96725.00
2023-10-20T18:39:00.522Z,96724.20
2023-10-20T18:41:27.423Z,96726.20
2023-10-20T18:43:53.220Z,96722.00
2023-10-20T18:46:20.516Z,96716.80
2023-10-20T18:48:46.492Z,96720.40
2023-10-20T18:51:13.378Z,96721.40
2023-10-20T18:53:41.331Z,96720.40
2023-10-20T18:56:07.829Z,96705.80
2023-10-20T18:58:34.431Z,96705.20
2023-10-20T19:01:00.598Z,96719.00
2023-10-20T19:03:27.316Z,96715.80
2023-10-20T19:05:53.176Z,96715.80
2023-10-20T19:08:19.233Z,96713.80
2023-10-20T19:10:45.462Z,96716.40
2023-10-20T19:13:11.317Z,96708.40
2023-10-20T19:15:37.470Z,96697.20
2023-10-20T19:18:04.429Z,96700.20
2023-10-20T19:20:30.275Z,96707.80
2023-10-20T19:22:56.269Z,96701.60
2023-10-20T19:25:22.279Z,96703.80
2023-10-20T19:27:48.071Z,96716.00
2023-10-20T19:30:14.327Z,96709.20
2023-10-20T19:32:40.204Z,96710.60
2023-10-20T19:37:31.474Z,96708.00
2023-10-20T19:39:57.208Z,96713.00
2023-10-20T19:42:23.356Z,96705.20
2023-10-20T19:44:49.597Z,96698.80
2023-10-20T19:47:15.676Z,96698.60
2023-10-20T19:49:41.462Z,96699.80
2023-10-20T19:52:07.420Z,96693.40
2023-10-20T19:54:33.160Z,96700.80
2023-10-20T19:56:58.947Z,96709.20
2023-10-20T19:59:24.772Z,96706.60
2023-10-20T20:01:50.548Z,96700.60
2023-10-20T20:04:18.614Z,96695.60
2023-10-20T20:06:44.662Z,96698.20
2023-10-20T20:09:10.421Z,96692.40
2023-10-20T20:11:36.253Z,96697.20
2023-10-20T20:14:02.012Z,96703.00
2023-10-20T20:16:27.910Z,96704.20
2023-10-20T20:18:53.716Z,96708.00
2023-10-20T20:21:19.543Z,96709.00
2023-10-20T20:23:45.354Z,96706.00
2023-10-20T20:26:11.161Z,96711.60
2023-10-20T20:28:37.172Z,96706.80
2023-10-20T20:31:03.277Z,96700.80
2023-10-20T20:33:30.144Z,96691.80
2023-10-20T20:35:56.833Z,96695.20
2023-10-20T20:38:22.636Z,96690.80
2023-10-20T20:40:49.489Z,96685.00
2023-10-20T20:43:16.345Z,96681.80
2023-10-20T20:45:42.325Z,96680.80
2023-10-20T20:48:08.207Z,96681.20
2023-10-20T20:50:42.252Z,96684.20
2023-10-20T20:53:08.150Z,96688.40
2023-10-20T20:55:37.008Z,96691.80
2023-10-20T20:58:06.502Z,96693.60
2023-10-20T21:00:32.243Z,96684.60
2023-10-20T21:02:58.071Z,96678.00
2023-10-20T21:05:25.231Z,96678.00
2023-10-20T21:07:50.994Z,96677.20
2023-10-20T21:10:16.892Z,96683.60
2023-10-20T21:12:42.649Z,96685.60
2023-10-20T21:15:08.819Z,96676.60
2023-10-20T21:17:35.718Z,96670.00
2023-10-20T21:20:01.926Z,96667.40
2023-10-20T21:22:27.693Z,96669.20
2023-10-20T21:24:57.668Z,96677.80
2023-10-20T21:27:23.911Z,96678.60
2023-10-20T21:29:49.811Z,96683.20
2023-10-20T21:32:15.914Z,96684.00
2023-10-20T21:34:41.616Z,96690.60
2023-10-20T21:37:07.341Z,96685.80
2023-10-20T21:39:33.228Z,96676.00
2023-10-20T21:42:00.319Z,96665.60
2023-10-20T21:44:26.501Z,96661.60
2023-10-20T21:46:52.300Z,96665.40
2023-10-20T21:49:18.247Z,96658.00
2023-10-20T21:51:44.045Z,96663.40
2023-10-20T21:54:10.067Z,96666.40
2023-10-20T21:56:36.174Z,96671.00
2023-10-20T21:59:02.334Z,96667.80
2023-10-20T22:01:28.074Z,96672.80
2023-10-20T22:03:54.103Z,96660.40
2023-10-20T22:06:20.071Z,96662.60
2023-10-20T22:08:46.232Z,96663.80
2023-10-20T22:11:12.008Z,96662.00
2023-10-20T22:13:37.749Z,96660.20
2023-10-20T22:16:04.357Z,96657.00
2023-10-20T22:18:30.709Z,96652.00
2023-10-20T22:20:56.491Z,96651.80
2023-10-20T22:23:25.256Z,96645.40
2023-10-20T22:25:51.250Z,96641.20
2023-10-20T22:28:17.111Z,96642.60
2023-10-20T22:30:42.998Z,96641.60
2023-10-20T22:33:08.842Z,96639.80
2023-10-20T22:35:34.669Z,96649.40
2023-10-20T22:38:00.557Z,96665.00
2023-10-20T22:40:26.758Z,96666.40
2023-10-20T22:42:52.544Z,96667.40
2023-10-20T22:45:18.540Z,96668.20
2023-10-20T22:47:44.793Z,96670.20
2023-10-20T22:50:10.700Z,96667.80
2023-10-20T22:52:36.463Z,96669.20
2023-10-20T22:55:03.964Z,96675.80
2023-10-20T22:57:29.982Z,96678.80
2023-10-20T22:59:55.764Z,96680.20
2023-10-20T23:02:21.508Z,96683.20
2023-10-20T23:04:47.291Z,96679.60
2023-10-20T23:07:13.252Z,96685.80
2023-10-20T23:09:38.964Z,96680.80
2023-10-20T23:12:05.129Z,96684.20
2023-10-20T23:14:31.231Z,96680.80
2023-10-20T23:16:57.003Z,96680.20
2023-10-20T23:19:22.883Z,96684.40
2023-10-20T23:21:48.600Z,96686.40
2023-10-20T23:24:14.405Z,96676.60
2023-10-20T23:26:40.741Z,96673.40
2023-10-20T23:31:33.200Z,96667.20
2023-10-20T23:33:59.174Z,96663.80
2023-10-20T23:36:24.994Z,96663.80
2023-10-20T23:38:50.722Z,96672.80
2023-10-20T23:41:16.539Z,96678.20
2023-10-20T23:43:42.748Z,96679.80
2023-10-20T23:46:08.569Z,96686.80
2023-10-20T23:48:34.436Z,96688.40
2023-10-20T23:51:00.226Z,96693.00
2023-10-20T23:53:26.304Z,96690.40
2023-10-20T23:55:52.073Z,96695.20
2023-10-20T23:58:17.818Z,96699.20
